Time;durP1;ratioP1;P1;durP2;ratioP2;P2;SDS_P1;SDS_P2;PMS_P1;PMS_P2;Temp;Humidity;BMP_temperature;BMP_pressure;BME280_temperature;BME280_humidity;BME280_pressure;Samples;Min_cycle;Max_cycle;Signal;HPM_P1;HPM_P2
2023/02/13 00:01:59;;;;;;;16.03;8.70;;;8.50;99.90;;;;;;5074830;28;20061;-55
2023/02/13 00:04:25;;;;;;;16.13;7.80;;;8.50;99.90;;;;;;5092905;28;20105;-55
2023/02/13 00:06:51;;;;;;;14.80;8.50;;;8.50;99.90;;;;;;5092757;28;20506;-54
2023/02/13 00:09:17;;;;;;;14.27;8.37;;;8.60;99.90;;;;;;5092673;28;20031;-54
2023/02/13 00:11:42;;;;;;;14.67;7.67;;;8.50;99.90;;;;;;5092830;28;20046;-57
2023/02/13 00:14:08;;;;;;;15.30;8.00;;;8.50;99.90;;;;;;5092863;28;20028;-56
2023/02/13 00:16:34;;;;;;;14.17;8.27;;;8.50;99.90;;;;;;5092596;28;20051;-55
2023/02/13 00:18:59;;;;;;;13.97;8.30;;;8.50;99.90;;;;;;5092631;28;20028;-54
2023/02/13 00:21:25;;;;;;;13.13;7.53;;;8.50;99.90;;;;;;5092476;28;20435;-55
2023/02/13 00:23:51;;;;;;;16.33;8.57;;;8.50;99.90;;;;;;5092335;28;20031;-56
2023/02/13 00:26:16;;;;;;;14.23;7.97;;;8.50;99.90;;;;;;5092494;28;20381;-54
2023/02/13 00:28:44;;;;;;;13.30;7.67;;;8.60;99.90;;;;;;5092707;28;20032;-55
2023/02/13 00:31:16;;;;;;;16.57;8.93;;;8.50;99.90;;;;;;5092640;28;20023;-56
2023/02/13 00:33:42;;;;;;;16.67;8.20;;;8.50;99.90;;;;;;5092206;28;20028;-57
2023/02/13 00:36:19;;;;;;;15.77;7.93;;;8.60;99.90;;;;;;5092380;28;20025;-54
2023/02/13 00:38:45;;;;;;;15.47;8.30;;;8.60;99.90;;;;;;5092281;28;20028;-53
2023/02/13 00:41:12;;;;;;;13.90;7.80;;;8.60;99.90;;;;;;5092105;28;20032;-57
2023/02/13 00:43:38;;;;;;;15.70;8.37;;;8.60;99.90;;;;;;5092092;28;20032;-53
2023/02/13 00:46:05;;;;;;;14.03;7.80;;;8.60;99.90;;;;;;5092025;28;20028;-54
2023/02/13 00:48:33;;;;;;;14.10;7.87;;;8.60;99.90;;;;;;5091042;28;20020;-54
2023/02/13 00:50:59;;;;;;;15.23;8.17;;;8.50;99.90;;;;;;5091820;28;20153;-54
2023/02/13 00:53:25;;;;;;;14.77;7.77;;;8.50;99.90;;;;;;5091824;28;20028;-54
2023/02/13 00:55:51;;;;;;;14.07;7.67;;;8.50;99.90;;;;;;5092095;28;20059;-53
2023/02/13 00:58:18;;;;;;;15.87;8.80;;;8.50;99.90;;;;;;5091856;28;20237;-50
2023/02/13 01:00:46;;;;;;;12.13;7.37;;;8.50;99.90;;;;;;5090296;28;20028;-52
2023/02/13 01:03:13;;;;;;;14.73;8.30;;;8.50;99.90;;;;;;5090488;28;20621;-56
2023/02/13 01:05:38;;;;;;;14.00;8.00;;;8.50;99.90;;;;;;5090201;28;20089;-54
2023/02/13 01:08:05;;;;;;;14.57;7.93;;;8.50;99.90;;;;;;5091691;28;20055;-53
2023/02/13 01:10:32;;;;;;;12.67;7.07;;;8.50;99.90;;;;;;5091576;28;20028;-52
2023/02/13 01:12:58;;;;;;;13.07;7.10;;;8.50;99.90;;;;;;5090293;28;20122;-52
2023/02/13 01:15:25;;;;;;;12.97;7.10;;;8.60;99.90;;;;;;5091610;28;20028;-50
2023/02/13 01:17:56;;;;;;;10.97;6.60;;;8.70;99.90;;;;;;5090006;28;20047;-53
2023/02/13 01:20:24;;;;;;;13.70;7.40;;;8.70;99.90;;;;;;5090192;28;20024;-54
2023/02/13 01:22:51;;;;;;;11.30;6.00;;;8.60;99.90;;;;;;5091335;28;20035;-54
2023/02/13 01:25:16;;;;;;;12.13;6.73;;;8.70;99.90;;;;;;5091304;28;20403;-55
2023/02/13 01:27:42;;;;;;;12.37;6.57;;;8.70;99.90;;;;;;5091267;28;20028;-56
2023/02/13 01:30:12;;;;;;;13.07;6.67;;;8.70;99.90;;;;;;5089910;28;20028;-58
2023/02/13 01:32:42;;;;;;;12.17;6.93;;;8.70;99.90;;;;;;5091220;28;20055;-55
2023/02/13 01:35:10;;;;;;;13.13;7.17;;;8.70;99.90;;;;;;5089782;28;20035;-51
2023/02/13 01:37:36;;;;;;;13.13;7.13;;;8.60;99.90;;;;;;5091084;28;20115;-54
2023/02/13 01:40:02;;;;;;;14.73;7.27;;;8.60;99.90;;;;;;5089734;28;20438;-53
2023/02/13 01:42:32;;;;;;;13.60;7.73;;;8.60;99.90;;;;;;5091022;28;20484;-55
2023/02/13 01:45:25;;;;;;;13.87;7.40;;;8.60;99.90;;;;;;5089602;28;20059;-54
2023/02/13 01:48:00;;;;;;;13.53;7.33;;;8.50;99.90;;;;;;5089907;28;20039;-54
2023/02/13 01:50:35;;;;;;;14.30;7.83;;;8.50;99.90;;;;;;5090928;28;20053;-54
2023/02/13 01:53:18;;;;;;;13.43;7.10;;;8.50;99.90;;;;;;5090945;28;20028;-53
2023/02/13 01:55:55;;;;;;;14.27;7.47;;;8.50;99.90;;;;;;5089853;28;20043;-52
2023/02/13 01:58:26;;;;;;;13.50;7.27;;;8.50;99.90;;;;;;5089092;28;20031;-55
2023/02/13 02:00:53;;;;;;;14.97;8.23;;;8.50;99.90;;;;;;5090569;28;20081;-54
2023/02/13 02:03:29;;;;;;;14.17;7.93;;;8.40;99.90;;;;;;5090526;28;20032;-52
2023/02/13 02:06:01;;;;;;;15.20;8.03;;;8.40;99.90;;;;;;5089377;28;20155;-54
2023/02/13 02:08:28;;;;;;;16.90;8.30;;;8.50;99.90;;;;;;5089325;28;20422;-54
2023/02/13 02:10:59;;;;;;;15.13;8.37;;;8.50;99.90;;;;;;5090579;28;20111;-56
2023/02/13 02:13:25;;;;;;;16.67;8.80;;;8.40;99.90;;;;;;5090659;28;20048;-52
2023/02/13 02:15:51;;;;;;;15.00;8.27;;;8.40;99.90;;;;;;5090654;28;20020;-53
2023/02/13 02:18:20;;;;;;;14.67;8.33;;;8.30;99.90;;;;;;5090447;28;20020;-54
2023/02/13 02:21:08;;;;;;;16.08;8.05;;;8.30;99.90;;;;;;5072661;28;20019;-52
2023/02/13 02:24:07;;;;;;;17.47;9.00;;;8.20;99.90;;;;;;5089153;28;20084;-54
2023/02/13 02:27:15;;;;;;;14.83;8.50;;;8.40;99.90;;;;;;5090464;28;20028;-56
2023/02/13 02:29:54;;;;;;;15.70;7.53;;;8.40;99.90;;;;;;5072825;28;20032;-56
2023/02/13 02:32:42;;;;;;;16.33;8.50;;;8.40;99.90;;;;;;5089357;28;20047;-55
2023/02/13 02:35:35;;;;;;;15.53;8.13;;;8.40;99.90;;;;;;5088977;28;20145;-54
2023/02/13 02:38:21;;;;;;;16.20;8.30;;;8.30;99.90;;;;;;5089214;28;20542;-54
2023/02/13 02:41:03;;;;;;;13.47;7.50;;;8.30;99.90;;;;;;5089029;28;20024;-55
2023/02/13 02:43:57;;;;;;;14.57;7.83;;;8.30;99.90;;;;;;5088972;28;20038;-56
2023/02/13 02:46:30;;;;;;;15.40;8.20;;;8.30;99.90;;;;;;5090375;28;20085;-56
2023/02/13 02:52:20;;;;;;;15.87;8.57;;;8.20;99.90;;;;;;5089294;28;20496;-55
2023/02/13 02:55:06;;;;;;;15.17;7.87;;;8.20;99.90;;;;;;5090275;28;20031;-55
2023/02/13 03:06:17;;;;;;;13.67;7.47;;;8.10;99.90;;;;;;5090266;28;20074;-54
2023/02/13 03:14:19;;;;;;;12.57;6.50;;;8.10;99.90;;;;;;5093950;28;20034;-55
2023/02/13 03:22:40;;;;;;;13.27;6.90;;;8.10;99.90;;;;;;5094310;28;20075;-55
2023/02/13 03:25:29;;;;;;;14.03;7.27;;;8.10;99.90;;;;;;5093629;28;20031;-54
2023/02/13 03:31:32;;;;;;;11.03;6.13;;;8.00;99.90;;;;;;5062063;28;20488;-55
2023/02/13 03:34:07;;;;;;;13.83;6.37;;;8.00;99.90;;;;;;5093713;28;20028;-54
2023/02/13 03:39:45;;;;;;;10.87;5.87;;;8.00;99.90;;;;;;5093388;28;20077;-56
2023/02/13 03:42:28;;;;;;;13.30;6.87;;;7.90;99.90;;;;;;5093480;28;20118;-55
2023/02/13 03:47:48;;;;;;;12.07;6.33;;;7.90;99.90;;;;;;5092023;28;20031;-56
2023/02/13 03:50:15;;;;;;;10.57;5.75;;;7.90;99.90;;;;;;5093198;28;20039;-54
2023/02/13 03:53:05;;;;;;;13.17;6.60;;;7.90;99.90;;;;;;5093508;28;20039;-56
2023/02/13 04:01:24;;;;;;;10.70;6.03;;;7.90;99.90;;;;;;5104134;22;20059;-52
2023/02/13 04:04:25;;;;;;;11.30;5.73;;;7.90;99.90;;;;;;5091645;28;20025;-55
2023/02/13 04:06:53;;;;;;;11.00;5.80;;;7.90;99.90;;;;;;5093154;28;20024;-54
2023/02/13 04:09:19;;;;;;;12.57;6.13;;;7.90;99.90;;;;;;5093048;28;20332;-56
2023/02/13 04:12:02;;;;;;;11.53;6.17;;;7.80;99.90;;;;;;5093210;28;20059;-55
2023/02/13 04:14:51;;;;;;;12.07;6.23;;;7.80;99.90;;;;;;5093123;28;20227;-56
2023/02/13 04:17:51;;;;;;;11.07;5.95;;;7.80;99.90;;;;;;5092806;28;20051;-55
2023/02/13 04:20:18;;;;;;;13.87;7.77;;;7.80;99.90;;;;;;5091701;28;20123;-56
2023/02/13 04:22:45;;;;;;;16.30;9.10;;;7.90;99.90;;;;;;5092567;28;20032;-55
2023/02/13 04:25:14;;;;;;;13.47;6.70;;;7.90;99.90;;;;;;5092764;28;20028;-53
2023/02/13 04:27:40;;;;;;;12.02;5.93;;;7.90;99.90;;;;;;5092578;28;20092;-55
2023/02/13 04:30:06;;;;;;;14.23;7.23;;;8.00;99.90;;;;;;5092442;28;20059;-55
2023/02/13 04:32:32;;;;;;;13.30;6.53;;;8.00;99.90;;;;;;5091345;28;20034;-56
2023/02/13 04:34:57;;;;;;;12.53;7.13;;;7.90;99.90;;;;;;5092556;28;20103;-56
2023/02/13 04:37:23;;;;;;;12.90;6.80;;;7.90;99.90;;;;;;5092307;28;20016;-55
2023/02/13 04:39:49;;;;;;;12.73;7.43;;;7.80;99.90;;;;;;5092454;28;20400;-53
2023/02/13 04:42:14;;;;;;;12.50;6.83;;;7.80;99.90;;;;;;5092143;28;20032;-56
2023/02/13 04:44:40;;;;;;;13.50;7.13;;;7.80;99.90;;;;;;5091914;28;20062;-55
2023/02/13 04:47:06;;;;;;;13.53;6.70;;;7.80;99.90;;;;;;5091990;28;20128;-54
2023/02/13 04:49:31;;;;;;;14.27;7.70;;;7.90;99.90;;;;;;5092299;28;20438;-55
2023/02/13 04:51:57;;;;;;;16.83;8.63;;;7.90;99.90;;;;;;5092375;28;20073;-56
2023/02/13 04:54:23;;;;;;;12.90;7.20;;;7.90;99.90;;;;;;5092043;28;20035;-56
2023/02/13 04:56:48;;;;;;;12.80;7.20;;;7.90;99.90;;;;;;5091833;28;20074;-57
2023/02/13 04:59:14;;;;;;;11.93;6.70;;;7.90;99.90;;;;;;5091859;28;20024;-55
2023/02/13 05:01:40;;;;;;;16.33;7.57;;;7.90;99.90;;;;;;5091653;28;20042;-55
2023/02/13 05:04:05;;;;;;;13.13;7.10;;;7.90;99.90;;;;;;5091735;28;20107;-56
2023/02/13 05:06:31;;;;;;;13.27;7.53;;;7.90;99.90;;;;;;5091725;28;20085;-55
2023/02/13 05:08:57;;;;;;;13.83;7.73;;;7.90;99.90;;;;;;5091697;28;20024;-55
2023/02/13 05:11:23;;;;;;;12.97;7.07;;;7.80;99.90;;;;;;5092103;28;20486;-56
2023/02/13 05:13:48;;;;;;;14.60;8.13;;;7.80;99.90;;;;;;5091389;28;20039;-52
2023/02/13 05:16:14;;;;;;;14.80;7.57;;;7.80;99.90;;;;;;5091518;28;20040;-57
2023/02/13 05:18:40;;;;;;;15.70;8.13;;;7.90;99.90;;;;;;5091441;28;20031;-56
2023/02/13 05:23:49;;;;;;;14.43;7.63;;;7.80;99.90;;;;;;5091420;28;20046;-53
2023/02/13 05:26:15;;;;;;;14.30;8.20;;;7.90;99.90;;;;;;5091316;28;20464;-54
2023/02/13 05:31:25;;;;;;;15.60;8.23;;;7.90;99.90;;;;;;5091284;28;20400;-56
2023/02/13 05:33:50;;;;;;;15.07;8.23;;;7.80;99.90;;;;;;5090591;28;20036;-55
2023/02/13 05:36:16;;;;;;;15.10;8.90;;;7.80;99.90;;;;;;5091226;28;20020;-55
2023/02/13 05:38:42;;;;;;;16.90;8.70;;;7.80;99.90;;;;;;5091056;28;20435;-56
2023/02/13 05:41:08;;;;;;;16.70;8.60;;;7.80;99.90;;;;;;5090960;28;20032;-56
2023/02/13 05:43:33;;;;;;;15.17;8.30;;;7.80;99.90;;;;;;5090784;28;20032;-55
2023/02/13 05:46:04;;;;;;;16.37;9.00;;;7.70;99.90;;;;;;5091097;28;20107;-50
2023/02/13 05:48:30;;;;;;;17.70;8.97;;;7.70;99.90;;;;;;5090796;28;20020;-55
2023/02/13 05:50:56;;;;;;;17.07;9.23;;;7.70;99.90;;;;;;5090883;28;20032;-54
2023/02/13 05:53:22;;;;;;;16.40;8.87;;;7.60;99.90;;;;;;5090647;28;20392;-55
2023/02/13 05:55:49;;;;;;;17.23;9.57;;;7.50;99.90;;;;;;5090933;28;20044;-56
2023/02/13 05:58:15;;;;;;;41.20;23.47;;;7.50;99.90;;;;;;5090759;28;20115;-53
2023/02/13 06:00:41;;;;;;;33.57;18.10;;;7.50;99.90;;;;;;5090641;28;20128;-53
2023/02/13 06:03:06;;;;;;;20.13;10.30;;;7.40;99.90;;;;;;5090802;28;20027;-52
2023/02/13 06:05:32;;;;;;;20.17;9.97;;;7.40;99.90;;;;;;5090637;28;20106;-53
2023/02/13 06:07:58;;;;;;;18.63;10.17;;;7.30;99.90;;;;;;5090546;28;20306;-53
2023/02/13 06:10:23;;;;;;;18.53;9.80;;;7.20;99.90;;;;;;5090662;28;20020;-54
2023/02/13 06:12:49;;;;;;;20.73;10.03;;;7.10;99.90;;;;;;5090651;28;20036;-53
2023/02/13 06:15:15;;;;;;;17.93;10.00;;;7.00;99.90;;;;;;5090477;28;20027;-53
2023/02/13 06:17:40;;;;;;;18.83;9.07;;;7.00;99.90;;;;;;5090458;28;20540;-55
2023/02/13 06:20:07;;;;;;;21.73;9.63;;;6.90;99.90;;;;;;5090526;28;20062;-54
2023/02/13 06:22:32;;;;;;;18.33;9.90;;;6.80;99.90;;;;;;5090752;28;20443;-57
2023/02/13 06:24:58;;;;;;;21.27;10.03;;;6.70;99.90;;;;;;5090482;28;20031;-53
2023/02/13 06:27:24;;;;;;;19.17;9.67;;;6.60;99.90;;;;;;5090272;28;20031;-53
2023/02/13 06:29:49;;;;;;;19.27;9.43;;;6.60;99.90;;;;;;5090467;28;20041;-55
2023/02/13 06:32:15;;;;;;;18.37;9.70;;;6.50;99.90;;;;;;5090637;28;20036;-56
2023/02/13 06:34:41;;;;;;;18.80;9.37;;;6.50;99.90;;;;;;5090348;28;20035;-56
2023/02/13 06:37:06;;;;;;;19.50;9.70;;;6.40;99.90;;;;;;5090250;28;20499;-56
2023/02/13 06:39:32;;;;;;;20.67;11.00;;;6.40;99.90;;;;;;5090637;28;20040;-57
2023/02/13 06:41:58;;;;;;;21.23;10.50;;;6.30;99.90;;;;;;5090245;28;20488;-56
2023/02/13 06:44:23;;;;;;;21.73;10.33;;;6.30;99.90;;;;;;5091132;28;20016;-57
2023/02/13 06:46:49;;;;;;;20.27;10.27;;;6.20;99.90;;;;;;5094623;28;20486;-53
2023/02/13 06:49:15;;;;;;;19.00;9.80;;;6.20;99.90;;;;;;5094364;28;20031;-57
2023/02/13 06:51:40;;;;;;;21.17;10.63;;;6.20;99.90;;;;;;5094108;28;20377;-56
2023/02/13 06:54:06;;;;;;;19.77;10.07;;;6.10;99.90;;;;;;5094316;28;20322;-54
2023/02/13 06:56:32;;;;;;;20.00;10.60;;;6.10;99.90;;;;;;5093956;28;20031;-57
2023/02/13 06:58:57;;;;;;;22.43;10.60;;;6.10;99.90;;;;;;5094351;28;20032;-57
2023/02/13 07:01:23;;;;;;;20.87;10.50;;;6.10;99.90;;;;;;5093900;28;20488;-55
2023/02/13 07:03:49;;;;;;;19.23;10.17;;;6.00;99.90;;;;;;5092772;28;20032;-54
2023/02/13 07:06:19;;;;;;;21.67;11.17;;;6.00;99.90;;;;;;5094012;28;20027;-53
2023/02/13 07:08:45;;;;;;;18.50;10.53;;;5.90;99.90;;;;;;5094082;28;20127;-53
2023/02/13 07:11:29;;;;;;;20.47;10.77;;;5.90;99.90;;;;;;5093846;28;20119;-54
2023/02/13 07:13:54;;;;;;;20.00;10.57;;;5.90;99.90;;;;;;5093744;28;20031;-53
2023/02/13 07:16:20;;;;;;;20.80;11.17;;;5.90;99.90;;;;;;5093657;28;20024;-53
2023/02/13 07:18:46;;;;;;;21.23;10.83;;;5.90;99.90;;;;;;5093605;28;20094;-52
2023/02/13 07:21:12;;;;;;;20.40;11.20;;;5.90;99.90;;;;;;5094027;28;20087;-54
2023/02/13 07:23:37;;;;;;;20.40;10.53;;;5.90;99.90;;;;;;5093789;28;20303;-54
2023/02/13 07:26:03;;;;;;;24.37;11.20;;;5.90;99.90;;;;;;5093770;28;20031;-53
2023/02/13 07:28:29;;;;;;;23.20;11.30;;;5.90;99.90;;;;;;5093478;28;20032;-52
2023/02/13 07:30:55;;;;;;;21.60;11.43;;;5.90;99.90;;;;;;5093501;28;20024;-54
2023/02/13 07:33:22;;;;;;;22.33;11.90;;;5.90;99.90;;;;;;5093284;28;20039;-54
2023/02/13 07:35:52;;;;;;;24.47;12.37;;;5.90;99.90;;;;;;5093434;28;20028;-54
2023/02/13 07:38:18;;;;;;;21.97;11.87;;;6.00;99.90;;;;;;5093268;28;20549;-53
2023/02/13 07:40:44;;;;;;;23.40;12.17;;;6.00;99.90;;;;;;5093302;28;20068;-54
2023/02/13 07:43:11;;;;;;;21.77;12.23;;;6.00;99.90;;;;;;5093238;28;20500;-54
2023/02/13 07:45:37;;;;;;;24.30;12.53;;;6.00;99.90;;;;;;5091583;28;20031;-52
2023/02/13 07:48:03;;;;;;;21.80;12.23;;;6.00;99.90;;;;;;5092953;28;20484;-54
2023/02/13 07:50:29;;;;;;;20.00;11.33;;;6.10;99.90;;;;;;5093217;28;20077;-52
2023/02/13 07:52:58;;;;;;;22.47;11.73;;;6.10;99.90;;;;;;5093206;28;20032;-55
2023/02/13 07:55:24;;;;;;;22.87;12.63;;;6.20;99.90;;;;;;5091829;28;20034;-54
2023/02/13 07:57:50;;;;;;;22.47;12.83;;;6.30;99.90;;;;;;5092230;28;20071;-54
2023/02/13 08:00:17;;;;;;;23.47;12.33;;;6.30;99.90;;;;;;5092884;28;20056;-54
2023/02/13 08:02:43;;;;;;;21.87;11.23;;;6.40;99.90;;;;;;5092890;28;20115;-55
2023/02/13 08:05:09;;;;;;;23.33;11.97;;;6.50;99.90;;;;;;5092701;28;20062;-54
2023/02/13 08:07:35;;;;;;;21.57;12.03;;;6.60;99.90;;;;;;5092617;28;20055;-56
2023/02/13 08:12:46;;;;;;;24.03;12.17;;;6.80;99.90;;;;;;5092669;28;20040;-54
2023/02/13 08:15:13;;;;;;;21.47;11.57;;;6.90;99.90;;;;;;5092645;28;20052;-53
2023/02/13 08:17:39;;;;;;;19.70;11.37;;;7.00;99.90;;;;;;5092493;28;20074;-54
2023/02/13 08:20:09;;;;;;;19.90;11.77;;;7.00;99.90;;;;;;5092540;28;20415;-51
2023/02/13 08:22:35;;;;;;;;;;;7.20;99.90;;;;;;5093023;28;20032;-51
2023/02/13 08:25:01;;;;;;;19.97;10.43;;;7.50;99.90;;;;;;5092506;28;19965;-54
2023/02/13 08:27:29;;;;;;;19.07;10.40;;;7.60;99.90;;;;;;5092139;28;20024;-54
2023/02/13 08:29:56;;;;;;;17.53;10.40;;;7.80;99.90;;;;;;5092396;28;20046;-55
2023/02/13 08:32:22;;;;;;;19.13;10.67;;;7.80;99.90;;;;;;5092424;28;20178;-54
2023/02/13 08:34:48;;;;;;;17.90;9.90;;;7.90;99.90;;;;;;5092559;28;20407;-54
2023/02/13 08:37:14;;;;;;;16.13;9.80;;;8.10;99.90;;;;;;5092156;28;20468;-54
2023/02/13 08:39:40;;;;;;;16.20;9.93;;;8.20;99.90;;;;;;5092560;28;20076;-53
2023/02/13 08:42:06;;;;;;;16.40;9.60;;;8.40;99.90;;;;;;5091831;28;20028;-55
2023/02/13 08:44:31;;;;;;;15.67;9.53;;;8.40;99.90;;;;;;5092223;28;20032;-56
2023/02/13 08:46:57;;;;;;;16.60;9.77;;;8.50;99.90;;;;;;5091991;28;20024;-54
2023/02/13 08:49:23;;;;;;;16.70;9.43;;;8.60;99.90;;;;;;5092091;28;20032;-53
2023/02/13 08:51:49;;;;;;;19.97;8.37;;;8.80;99.90;;;;;;5092035;28;20081;-56
2023/02/13 08:54:15;;;;;;;17.40;9.33;;;9.10;99.90;;;;;;5091747;28;20028;-56
2023/02/13 08:56:41;;;;;;;15.77;9.40;;;9.30;99.90;;;;;;5091676;28;20103;-55
2023/02/13 08:59:07;;;;;;;15.40;9.20;;;9.50;99.90;;;;;;5092108;28;20062;-56
2023/02/13 09:01:33;;;;;;;14.10;8.77;;;9.50;99.90;;;;;;5091681;28;20036;-55
2023/02/13 09:03:59;;;;;;;14.10;8.50;;;9.60;99.90;;;;;;5090336;28;20070;-55
2023/02/13 09:06:27;;;;;;;17.93;8.60;;;9.90;99.90;;;;;;5091663;28;20028;-55
2023/02/13 09:08:53;;;;;;;15.73;8.98;;;10.30;99.90;;;;;;5090674;28;20020;-55
2023/02/13 09:11:22;;;;;;;15.37;9.37;;;10.40;99.90;;;;;;5091512;28;20044;-56
2023/02/13 09:13:49;;;;;;;15.63;8.63;;;10.50;99.90;;;;;;5091686;28;20031;-55
2023/02/13 09:16:15;;;;;;;13.03;8.17;;;10.70;99.90;;;;;;5091676;28;20070;-57
2023/02/13 09:18:40;;;;;;;11.63;7.68;;;11.20;99.90;;;;;;5091492;28;20028;-57
2023/02/13 09:21:11;;;;;;;11.50;7.00;;;11.40;99.90;;;;;;5091521;28;20032;-56
2023/02/13 09:23:39;;;;;;;12.50;7.55;;;11.80;99.90;;;;;;5091125;28;20506;-57
2023/02/13 09:26:07;;;;;;;12.35;7.57;;;12.30;99.90;;;;;;5091665;28;20125;-56
2023/02/13 09:28:34;;;;;;;13.30;8.20;;;12.60;99.90;;;;;;5091216;28;20024;-57
2023/02/13 09:31:08;;;;;;;14.23;8.32;;;12.80;99.90;;;;;;5091517;28;20385;-58
2023/02/13 09:33:34;;;;;;;12.75;8.02;;;13.40;99.90;;;;;;5091209;28;20032;-58
2023/02/13 09:36:15;;;;;;;12.75;7.97;;;13.70;99.90;;;;;;5091284;28;20024;-57
2023/02/13 09:38:42;;;;;;;12.93;7.40;;;14.60;99.90;;;;;;5090982;28;20492;-56
2023/02/13 09:41:11;;;;;;;10.60;6.50;;;15.50;99.90;;;;;;5091223;28;20032;-56
2023/02/13 09:43:49;;;;;;;12.77;7.53;;;16.00;99.90;;;;;;5090914;28;20028;-56
2023/02/13 09:46:34;;;;;;;11.88;7.38;;;16.20;98.30;;;;;;5091084;28;20028;-56
2023/02/13 09:49:15;;;;;;;13.63;7.88;;;16.40;98.00;;;;;;5091110;28;20453;-56
2023/02/13 09:51:49;;;;;;;10.70;7.22;;;16.80;96.90;;;;;;5090964;28;20416;-56
2023/02/13 09:54:17;;;;;;;12.07;7.00;;;16.10;98.00;;;;;;5090901;28;20105;-56
2023/02/13 09:57:15;;;;;;;9.23;6.57;;;17.10;96.60;;;;;;5090659;28;20534;-56
2023/02/13 09:59:52;;;;;;;9.13;6.38;;;17.60;94.80;;;;;;5070581;28;20110;-56
2023/02/13 10:02:29;;;;;;;9.75;6.47;;;18.30;93.80;;;;;;5090705;28;20040;-56
2023/02/13 10:05:32;;;;;;;9.18;6.57;;;18.00;93.10;;;;;;5090726;28;20056;-57
2023/02/13 10:08:36;;;;;;;12.73;7.20;;;18.10;93.80;;;;;;5090552;28;20076;-56
2023/02/13 10:11:27;;;;;;;8.80;6.82;;;18.70;91.30;;;;;;5090660;28;20040;-56
2023/02/13 10:14:16;;;;;;;13.15;6.85;;;19.50;86.90;;;;;;5090476;28;20366;-56
2023/02/13 10:16:52;;;;;;;8.73;6.10;;;20.30;83.10;;;;;;5090396;28;20492;-56
2023/02/13 10:19:28;;;;;;;8.40;6.78;;;20.40;83.60;;;;;;5090394;28;20112;-56
2023/02/13 10:22:28;;;;;;;8.57;6.53;;;21.00;79.10;;;;;;5090868;28;20028;-56
2023/02/13 10:25:16;;;;;;;8.73;6.60;;;21.90;75.80;;;;;;5090303;28;20093;-56
2023/02/13 10:27:52;;;;;;;8.65;6.95;;;22.10;73.80;;;;;;5090474;28;20024;-57
2023/02/13 10:30:28;;;;;;;8.57;6.78;;;22.40;70.80;;;;;;5090438;28;20485;-56
2023/02/13 10:33:18;;;;;;;8.30;6.50;;;22.50;68.80;;;;;;5090596;28;20059;-56
2023/02/13 10:36:14;;;;;;;10.30;6.68;;;23.10;67.20;;;;;;5090513;28;20533;-56
2023/02/13 10:39:10;;;;;;;9.10;6.43;;;23.00;65.90;;;;;;5079695;28;20039;-56
2023/02/13 10:41:48;;;;;;;8.65;6.75;;;23.70;64.60;;;;;;5089067;28;20446;-56
2023/02/13 10:44:31;;;;;;;9.68;5.95;;;22.50;64.10;;;;;;5090468;28;20111;-56
2023/02/13 10:47:25;;;;;;;9.25;6.30;;;23.20;64.00;;;;;;5090095;28;20020;-56
2023/02/13 10:50:02;;;;;;;8.70;6.85;;;24.10;61.60;;;;;;5090314;28;20051;-56
2023/02/13 10:52:49;;;;;;;10.05;6.05;;;23.10;61.50;;;;;;5090501;28;20040;-56
2023/02/13 10:55:33;;;;;;;7.80;6.05;;;23.30;62.50;;;;;;5090267;28;20044;-56
2023/02/13 10:58:01;;;;;;;6.70;5.70;;;23.80;61.00;;;;;;5090259;28;20115;-56
2023/02/13 11:00:42;;;;;;;6.90;5.80;;;24.20;60.30;;;;;;5090067;28;20406;-56
2023/02/13 11:03:23;;;;;;;9.98;6.13;;;23.70;60.10;;;;;;5090242;28;20028;-57
2023/02/13 11:05:51;;;;;;;7.53;6.10;;;24.70;58.30;;;;;;5090201;28;20111;-56
2023/02/13 11:08:31;;;;;;;8.80;6.53;;;24.40;57.50;;;;;;5090177;28;20114;-56
2023/02/13 11:10:57;;;;;;;8.50;6.63;;;22.30;61.60;;;;;;5090209;28;20086;-56
2023/02/13 11:13:25;;;;;;;9.57;6.50;;;21.60;64.40;;;;;;5089979;28;20123;-56
2023/02/13 11:15:59;;;;;;;10.05;5.97;;;21.30;63.80;;;;;;5090032;28;20498;-56
2023/02/13 11:18:27;;;;;;;8.57;6.05;;;21.70;64.00;;;;;;5090346;28;20039;-56
2023/02/13 11:21:18;;;;;;;8.65;6.40;;;21.20;65.60;;;;;;5089908;28;20043;-56
2023/02/13 11:23:48;;;;;;;7.07;5.75;;;22.10;64.80;;;;;;5089976;28;20050;-56
2023/02/13 11:26:22;;;;;;;8.40;5.80;;;21.60;63.70;;;;;;5090194;28;20028;-56
2023/02/13 11:28:55;;;;;;;6.72;5.55;;;22.40;62.80;;;;;;5090541;28;20044;-56
2023/02/13 11:31:23;;;;;;;9.07;5.93;;;22.80;62.10;;;;;;5091128;28;20043;-56
2023/02/13 11:33:48;;;;;;;;;;;22.90;60.80;;;;;;5094272;28;20248;-56
2023/02/13 11:36:26;;;;;;;8.13;6.25;;;23.50;59.20;;;;;;5093507;28;20390;-56
2023/02/13 11:39:01;;;;;;;7.40;5.60;;;22.70;59.50;;;;;;5093553;28;20024;-56
2023/02/13 11:41:28;;;;;;;7.35;5.25;;;22.80;60.60;;;;;;5093272;28;20032;-56
2023/02/13 11:44:02;;;;;;;7.93;6.10;;;23.90;60.40;;;;;;5091936;28;20377;-56
2023/02/13 11:46:49;;;;;;;7.25;5.40;;;24.20;57.80;;;;;;5093313;28;21000;-56
2023/02/13 11:49:21;;;;;;;8.13;6.47;;;24.70;56.10;;;;;;5093152;28;20498;-56
2023/02/13 11:51:52;;;;;;;6.95;5.22;;;24.20;56.70;;;;;;5092911;28;20454;-56
2023/02/13 11:54:24;;;;;;;8.27;6.10;;;23.90;57.50;;;;;;5093206;28;20036;-56
2023/02/13 11:56:56;;;;;;;8.02;5.95;;;23.90;57.30;;;;;;5092831;28;20043;-56
2023/02/13 11:59:23;;;;;;;8.88;5.82;;;23.60;57.50;;;;;;5093124;28;20024;-56
2023/02/13 12:02:18;;;;;;;8.52;5.88;;;22.20;59.60;;;;;;5092752;28;20510;-56
2023/02/13 12:04:45;;;;;;;8.95;6.25;;;21.30;61.90;;;;;;5092840;28;20028;-56
2023/02/13 12:07:26;;;;;;;6.97;5.65;;;21.10;62.30;;;;;;5092639;28;20051;-56
2023/02/13 12:10:13;;;;;;;8.15;5.72;;;21.80;62.60;;;;;;5092827;28;20057;-56
2023/02/13 12:12:49;;;;;;;8.35;5.90;;;22.60;59.80;;;;;;5092801;28;20036;-56
2023/02/13 12:15:23;;;;;;;9.20;5.60;;;23.20;59.00;;;;;;5092504;28;20042;-57
2023/02/13 12:18:14;;;;;;;6.78;5.25;;;24.20;57.30;;;;;;5092778;28;20242;-57
2023/02/13 12:21:20;;;;;;;6.80;4.75;;;24.40;55.70;;;;;;5092555;28;20059;-56
2023/02/13 12:23:48;;;;;;;7.65;4.90;;;24.40;55.40;;;;;;5092167;28;20035;-57
2023/02/13 12:26:30;;;;;;;6.45;5.55;;;24.50;55.50;;;;;;5092695;28;20016;-56
2023/02/13 12:29:30;;;;;;;7.40;4.97;;;24.10;56.20;;;;;;5092460;28;20028;-56
2023/02/13 12:32:14;;;;;;;7.45;5.18;;;22.90;58.00;;;;;;5092416;28;20503;-57
2023/02/13 12:34:53;;;;;;;7.10;5.10;;;22.40;59.30;;;;;;5092246;28;20373;-56
2023/02/13 12:37:44;;;;;;;7.30;5.43;;;21.50;59.90;;;;;;5092144;28;20042;-56
2023/02/13 12:40:37;;;;;;;7.63;5.47;;;21.40;61.30;;;;;;5092221;28;20073;-57
2023/02/13 12:43:23;;;;;;;7.50;5.60;;;21.90;60.60;;;;;;5091966;28;20028;-57
2023/02/13 12:46:07;;;;;;;7.72;5.97;;;22.60;60.00;;;;;;5092201;28;20119;-58
2023/02/13 12:48:49;;;;;;;8.45;6.57;;;23.50;58.00;;;;;;5090838;28;20043;-57
2023/02/13 12:51:39;;;;;;;9.23;5.57;;;23.70;55.40;;;;;;5092261;28;20392;-57
2023/02/13 12:54:30;;;;;;;8.43;5.40;;;22.70;57.70;;;;;;5091978;28;20074;-57
2023/02/13 12:57:08;;;;;;;7.88;5.13;;;22.00;59.40;;;;;;5092078;28;20464;-57
2023/02/13 12:59:47;;;;;;;7.10;4.35;;;23.30;60.30;;;;;;5092273;28;20429;-57
2023/02/13 13:02:18;;;;;;;6.75;4.72;;;25.10;56.20;;;;;;5091927;28;20037;-58
2023/02/13 13:04:56;;;;;;;7.13;4.95;;;25.90;53.70;;;;;;5091892;28;20097;-58
2023/02/13 13:07:29;;;;;;;;;;;26.90;51.90;;;;;;5092523;28;20039;-58
2023/02/13 13:10:13;;;;;;;7.45;4.90;;;26.60;52.30;;;;;;5092042;28;19908;-58
2023/02/13 13:13:02;;;;;;;5.82;4.60;;;25.20;52.70;;;;;;5092108;28;20085;-58
2023/02/13 13:15:54;;;;;;;6.45;5.22;;;24.70;54.10;;;;;;5091823;28;20036;-58
2023/02/13 13:18:39;;;;;;;6.85;5.15;;;23.90;54.40;;;;;;5091388;28;20059;-57
2023/02/13 13:21:26;;;;;;;7.55;4.68;;;22.50;56.90;;;;;;5091738;28;20132;-57
2023/02/13 13:24:02;;;;;;;7.47;4.63;;;22.50;57.70;;;;;;5091656;28;20472;-57
2023/02/13 13:26:39;;;;;;;8.15;4.22;;;22.10;57.30;;;;;;5091585;28;20028;-58
2023/02/13 13:29:18;;;;;;;5.45;3.95;;;23.10;56.40;;;;;;5091650;28;20085;-57
2023/02/13 13:31:51;;;;;;;6.50;4.20;;;24.10;55.20;;;;;;5091616;28;20039;-57
2023/02/13 13:34:22;;;;;;;5.53;3.90;;;25.30;53.10;;;;;;5091436;28;20035;-57
2023/02/13 13:36:56;;;;;;;5.40;3.80;;;25.40;53.30;;;;;;5091435;28;20031;-58
2023/02/13 13:40:00;;;;;;;5.95;3.97;;;26.20;51.40;;;;;;5091601;28;20036;-58
2023/02/13 13:42:48;;;;;;;5.40;3.90;;;26.60;50.40;;;;;;5091450;28;20024;-58
2023/02/13 13:45:28;;;;;;;6.10;3.70;;;27.40;48.90;;;;;;5091195;28;20039;-58
2023/02/13 13:48:33;;;;;;;6.60;3.65;;;27.90;49.10;;;;;;5091214;28;20024;-55
2023/02/13 13:50:59;;;;;;;7.18;3.85;;;27.70;48.60;;;;;;5091405;28;20040;-55
2023/02/13 13:53:25;;;;;;;4.75;3.40;;;26.90;49.00;;;;;;5091200;28;20423;-55
2023/02/13 13:56:09;;;;;;;5.50;3.65;;;25.80;50.50;;;;;;5091026;28;20023;-57
2023/02/13 13:58:43;;;;;;;6.78;3.30;;;26.00;50.60;;;;;;5091091;28;20028;-57
2023/02/13 14:01:22;;;;;;;6.22;3.28;;;26.60;49.20;;;;;;5091145;28;20032;-57